Time;durP1;ratioP1;P1;durP2;ratioP2;P2;SDS_P1;SDS_P2;PMS_P1;PMS_P2;Temp;Humidity;BMP_temperature;BMP_pressure;BME280_temperature;BME280_humidity;BME280_pressure;Samples;Min_cycle;Max_cycle;Signal;HPM_P1;HPM_P2
2021/08/07 00:01:53;;;;;;;6.93;0.82;;;;;;;17.11;54.21;100100.38;7808126;29;20036;-63
2021/08/07 00:05:43;;;;;;;0.82;0.77;;;;;;;17.10;54.43;100122.59;7807521;29;20042;-63
2021/08/07 00:09:34;;;;;;;0.95;0.95;;;;;;;17.09;54.39;100111.16;7807990;29;20094;-63
2021/08/07 00:13:24;;;;;;;5.50;0.80;;;;;;;17.07;54.35;100107.81;7806179;29;20031;-63
2021/08/07 00:17:15;;;;;;;3.13;0.82;;;;;;;17.07;54.50;100104.34;7805700;29;20580;-63
2021/08/07 00:21:06;;;;;;;6.40;1.13;;;;;;;17.06;54.76;100100.03;7795387;29;20098;-63
2021/08/07 00:24:56;;;;;;;1.63;0.55;;;;;;;17.04;54.77;100094.03;7807689;29;20499;-63
2021/08/07 00:28:47;;;;;;;1.70;0.70;;;;;;;16.96;54.61;100081.59;7806570;29;20043;-63
2021/08/07 00:32:39;;;;;;;2.83;0.80;;;;;;;17.01;54.65;100081.94;7806858;29;20118;-63
2021/08/07 00:36:33;;;;;;;0.90;0.80;;;;;;;17.01;55.05;100083.75;7805052;29;20539;-63
2021/08/07 00:40:27;;;;;;;0.60;0.57;;;;;;;17.00;54.69;100076.78;7802694;29;20042;-63
2021/08/07 00:44:21;;;;;;;1.23;0.70;;;;;;;16.97;54.98;100070.00;7803907;29;20047;-63
2021/08/07 00:48:12;;;;;;;1.27;0.63;;;;;;;16.94;54.82;100064.19;7805133;29;21374;-63
2021/08/07 00:52:10;;;;;;;2.03;0.60;;;;;;;16.90;54.83;100063.63;7804047;29;20056;-63
2021/08/07 00:56:07;;;;;;;0.80;0.70;;;;;;;16.86;54.73;100061.47;7803534;29;20044;-63
2021/08/07 01:00:08;;;;;;;0.70;0.70;;;;;;;16.81;54.69;100072.56;7803672;29;20408;-63
2021/08/07 01:04:06;;;;;;;2.47;0.70;;;;;;;16.76;54.76;100058.09;7800578;29;20036;-62
2021/08/07 01:08:13;;;;;;;5.63;1.13;;;;;;;16.70;54.73;100051.63;7800403;29;20047;-63
2021/08/07 01:12:28;;;;;;;0.60;0.60;;;;;;;16.62;54.51;100049.78;7805182;29;20578;-63
2021/08/07 01:16:30;;;;;;;2.15;0.80;;;;;;;16.57;54.80;100056.56;7804619;29;20047;-63
2021/08/07 01:20:47;;;;;;;0.70;0.70;;;;;;;16.51;54.56;100060.66;7804836;29;20079;-63
2021/08/07 01:24:51;;;;;;;2.17;0.57;;;;;;;16.45;54.73;100074.53;7794525;29;20032;-63
2021/08/07 01:28:46;;;;;;;4.78;1.15;;;;;;;16.42;54.77;100071.38;7803182;29;20044;-63
2021/08/07 01:32:38;;;;;;;0.82;0.80;;;;;;;16.37;55.02;100068.41;7803186;29;20039;-63
2021/08/07 01:36:30;;;;;;;1.65;0.60;;;;;;;16.31;54.59;100064.53;7804471;29;20118;-63
2021/08/07 01:40:24;;;;;;;2.97;0.70;;;;;;;16.26;54.54;100063.34;7804650;29;20032;-63
2021/08/07 01:44:21;;;;;;;1.88;0.70;;;;;;;16.24;54.56;100060.88;7811529;29;20429;-63
2021/08/07 01:48:53;;;;;;;1.02;0.88;;;;;;;16.16;54.60;100058.19;7810109;29;20048;-63
2021/08/07 01:52:54;;;;;;;;;;;;;;;15.97;54.56;100045.94;7800113;29;20044;-63
2021/08/07 01:56:45;;;;;;;3.53;0.95;;;;;;;15.96;54.72;100035.47;7831526;29;19919;-63
2021/08/07 02:00:41;;;;;;;1.55;0.80;;;;;;;15.98;54.56;100044.94;7809877;29;20035;-63
2021/08/07 02:04:34;;;;;;;4.07;1.05;;;;;;;15.94;54.66;100037.47;7805432;29;20044;-63
2021/08/07 02:08:35;;;;;;;11.00;1.27;;;;;;;15.90;54.67;100049.38;7801180;29;20036;-63
2021/08/07 02:12:27;;;;;;;3.53;0.98;;;;;;;15.87;54.78;100053.13;7797232;29;20036;-64
2021/08/07 02:16:24;;;;;;;5.00;1.00;;;;;;;15.83;54.74;100038.53;7811136;29;20046;-64
2021/08/07 02:20:16;;;;;;;2.13;1.23;;;;;;;15.81;54.78;100045.00;7795557;29;20501;-64
2021/08/07 02:24:07;;;;;;;4.57;1.02;;;;;;;15.78;54.81;100038.19;7809527;29;20603;-64
2021/08/07 02:28:02;;;;;;;4.82;0.70;;;;;;;15.73;54.76;100035.19;7807773;29;20059;-63
2021/08/07 02:31:59;;;;;;;3.72;1.10;;;;;;;15.73;55.04;100043.94;7808242;29;20625;-64
2021/08/07 02:35:54;;;;;;;2.22;0.75;;;;;;;15.69;54.95;100037.31;7807485;29;20040;-63
2021/08/07 02:39:46;;;;;;;1.77;0.90;;;;;;;15.66;54.88;100034.13;7807394;29;20036;-64
2021/08/07 02:43:38;;;;;;;1.13;0.80;;;;;;;15.64;54.95;100036.94;7808115;29;20595;-64
2021/08/07 02:47:30;;;;;;;1.75;0.80;;;;;;;15.63;54.86;100032.59;7808128;29;20047;-64
2021/08/07 02:51:26;;;;;;;5.88;0.95;;;;;;;15.63;55.04;100029.13;7807449;29;20039;-64
2021/08/07 02:55:22;;;;;;;1.10;0.68;;;;;;;15.60;55.09;100024.97;7807153;29;20714;-63
2021/08/07 02:59:13;;;;;;;0.95;0.77;;;;;;;15.59;55.25;100030.41;7806742;29;20032;-64
2021/08/07 03:03:05;;;;;;;2.95;1.13;;;;;;;15.58;55.17;100024.28;7808226;29;20062;-63
2021/08/07 03:06:57;;;;;;;0.60;0.60;;;;;;;15.55;55.30;100021.97;7806829;29;20138;-64
2021/08/07 03:10:51;;;;;;;1.75;1.05;;;;;;;15.51;55.23;100019.78;7806607;29;20044;-64
2021/08/07 03:14:47;;;;;;;1.27;0.82;;;;;;;15.53;55.12;100015.16;7807144;29;20076;-63
2021/08/07 03:18:38;;;;;;;1.95;0.70;;;;;;;15.52;55.23;100014.34;7806483;29;20167;-64
2021/08/07 03:22:29;;;;;;;2.13;0.90;;;;;;;15.51;55.03;100012.66;7807356;29;20513;-63
2021/08/07 03:26:23;;;;;;;0.88;0.70;;;;;;;15.49;55.36;100012.00;7807097;29;20047;-64
2021/08/07 03:30:14;;;;;;;1.33;0.75;;;;;;;15.50;55.46;100004.91;7807185;29;20706;-63
2021/08/07 03:34:05;;;;;;;1.33;0.80;;;;;;;15.49;55.62;100004.06;7804372;29;20469;-63
2021/08/07 03:37:57;;;;;;;0.70;0.70;;;;;;;15.48;55.50;100005.03;7805637;29;20051;-63
2021/08/07 03:41:48;;;;;;;1.48;0.90;;;;;;;15.47;55.40;99994.59;7806017;29;20064;-63
2021/08/07 03:45:40;;;;;;;1.15;0.90;;;;;;;15.47;55.49;99998.06;7805704;29;20090;-63
2021/08/07 03:49:31;;;;;;;1.48;0.88;;;;;;;15.46;55.66;99999.06;7808580;29;20044;-64
2021/08/07 03:53:22;;;;;;;1.17;0.93;;;;;;;15.43;55.55;99988.78;7806683;29;20510;-63
2021/08/07 03:57:16;;;;;;;3.60;1.15;;;;;;;15.42;55.69;99988.94;7805974;29;20039;-64
2021/08/07 04:01:07;;;;;;;4.32;1.00;;;;;;;15.37;55.69;99986.78;7807934;29;20103;-64
2021/08/07 04:04:59;;;;;;;1.42;1.05;;;;;;;15.42;55.87;99988.94;7806288;29;20060;-64
2021/08/07 04:08:50;;;;;;;2.70;1.33;;;;;;;15.38;55.88;99980.47;7805857;29;20075;-64
2021/08/07 04:12:42;;;;;;;3.17;1.15;;;;;;;15.43;55.89;99987.94;7798618;29;20031;-63
2021/08/07 04:16:34;;;;;;;2.08;1.30;;;;;;;15.44;55.86;99982.50;7803898;29;20098;-64
2021/08/07 04:20:33;;;;;;;1.65;0.98;;;;;;;15.45;55.84;99975.41;7805059;29;20115;-63
2021/08/07 04:24:23;;;;;;;4.75;1.25;;;;;;;15.45;56.01;99978.88;7805401;29;20481;-63
2021/08/07 04:28:15;;;;;;;2.15;0.95;;;;;;;15.45;56.04;99970.94;7805511;29;20972;-63
2021/08/07 04:32:08;;;;;;;1.65;1.13;;;;;;;15.47;56.07;99979.53;7805732;29;20039;-64
2021/08/07 04:36:01;;;;;;;1.95;1.17;;;;;;;15.47;56.13;99979.53;7807279;29;20410;-63
2021/08/07 04:39:52;;;;;;;2.38;0.88;;;;;;;15.47;56.15;99971.59;7806471;29;20110;-63
2021/08/07 04:43:43;;;;;;;1.80;1.13;;;;;;;15.48;56.20;99975.09;7805007;29;20118;-63
2021/08/07 04:47:34;;;;;;;1.65;1.17;;;;;;;15.47;56.38;99974.25;7805675;29;20127;-63
2021/08/07 04:51:25;;;;;;;3.97;1.05;;;;;;;15.50;56.16;99978.44;7803573;29;20066;-64
2021/08/07 04:55:16;;;;;;;0.80;0.80;;;;;;;15.51;56.18;99977.41;7805019;29;20628;-63
2021/08/07 04:59:06;;;;;;;2.97;0.98;;;;;;;15.51;56.48;99982.72;7800922;29;20040;-63
2021/08/07 05:02:58;;;;;;;3.47;1.00;;;;;;;15.53;56.29;99986.06;7806048;29;20180;-63
2021/08/07 05:06:49;;;;;;;0.80;0.70;;;;;;;15.54;56.25;99977.94;7799729;29;20040;-63
2021/08/07 05:10:42;;;;;;;4.30;1.10;;;;;;;15.55;56.33;99979.59;7810715;29;20027;-63
2021/08/07 05:14:33;;;;;;;3.30;0.98;;;;;;;15.57;56.33;99976.81;7810248;29;20062;-63
2021/08/07 05:18:25;;;;;;;0.88;0.85;;;;;;;15.59;56.34;99977.47;7815332;29;20119;-63
2021/08/07 05:22:17;;;;;;;2.47;0.80;;;;;;;15.60;56.33;99977.34;7803649;29;20460;-63
2021/08/07 05:26:12;;;;;;;3.08;1.25;;;;;;;15.59;56.41;99986.25;7801553;29;20440;-63
2021/08/07 05:30:05;;;;;;;4.88;1.02;;;;;;;15.61;56.50;99976.34;7797959;29;20051;-63
2021/08/07 05:33:57;;;;;;;1.60;1.00;;;;;;;15.61;56.43;99976.34;7803333;29;20631;-63
2021/08/07 05:37:48;;;;;;;2.97;1.15;;;;;;;15.64;56.59;99976.03;7802639;29;20032;-64
2021/08/07 05:41:39;;;;;;;3.42;1.58;;;;;;;15.67;56.76;99970.41;7802527;29;20032;-64
2021/08/07 05:45:32;;;;;;;2.42;1.15;;;;;;;15.76;56.72;99967.81;7800224;29;20437;-63
2021/08/07 05:49:23;;;;;;;2.63;1.08;;;;;;;15.86;56.68;99960.63;7796606;29;20497;-64
2021/08/07 05:53:15;;;;;;;2.28;0.75;;;;;;;15.99;56.76;99955.72;7796237;29;20063;-65
2021/08/07 05:57:05;;;;;;;1.88;0.80;;;;;;;16.15;56.75;99951.38;7811052;29;20039;-65
2021/08/07 06:00:59;;;;;;;0.77;0.77;;;;;;;16.28;56.76;99956.22;7813282;29;20091;-64
2021/08/07 06:04:50;;;;;;;1.10;0.90;;;;;;;16.38;56.84;99956.91;7808750;29;20028;-66
2021/08/07 06:08:43;;;;;;;1.90;1.00;;;;;;;16.55;56.84;99965.72;7806129;29;20040;-65
2021/08/07 06:12:34;;;;;;;1.23;0.90;;;;;;;16.68;56.55;99962.63;7809646;29;20047;-66
2021/08/07 06:16:25;;;;;;;2.97;0.98;;;;;;;16.75;56.59;99963.63;7801069;29;20050;-65
2021/08/07 06:20:17;;;;;;;2.10;0.85;;;;;;;16.80;56.44;99963.97;7795256;29;20065;-66
2021/08/07 06:24:12;;;;;;;2.08;1.10;;;;;;;16.84;56.09;99962.66;7802678;29;20047;-64
2021/08/07 06:28:03;;;;;;;1.08;0.98;;;;;;;16.89;56.54;99953.22;7805440;29;20039;-66
2021/08/07 06:31:54;;;;;;;0.90;0.75;;;;;;;17.05;56.52;99950.59;7825115;29;20042;-65
2021/08/07 06:35:45;;;;;;;2.05;0.98;;;;;;;17.28;56.78;99949.94;7822522;29;20411;-65
2021/08/07 06:39:36;;;;;;;1.05;0.75;;;;;;;17.46;56.71;99953.25;7807750;29;20100;-64
2021/08/07 06:43:27;;;;;;;1.52;0.98;;;;;;;17.75;56.67;99968.66;7811999;29;20036;-65
2021/08/07 06:47:21;;;;;;;2.08;1.20;;;;;;;17.97;56.36;99960.81;7814909;29;20635;-65
2021/08/07 06:51:12;;;;;;;2.75;1.23;;;;;;;18.05;56.25;99959.13;7814308;29;20537;-64
2021/08/07 06:55:03;;;;;;;1.35;0.93;;;;;;;18.00;55.76;99952.50;7801206;29;20044;-66
2021/08/07 06:58:55;;;;;;;2.38;1.00;;;;;;;17.92;55.64;99954.34;7806042;29;20040;-65
2021/08/07 07:02:46;;;;;;;1.38;0.82;;;;;;;17.82;55.65;99954.53;7803925;29;20071;-66
2021/08/07 07:06:37;;;;;;;1.73;0.90;;;;;;;17.73;55.82;99949.41;7810043;29;20574;-64
2021/08/07 07:10:32;;;;;;;1.50;0.80;;;;;;;17.65;55.49;99947.59;7810531;29;20516;-65
2021/08/07 07:14:23;;;;;;;1.67;0.90;;;;;;;17.66;55.62;99959.84;7795928;29;20676;-64
2021/08/07 07:18:14;;;;;;;0.93;0.70;;;;;;;17.69;55.59;99959.56;7809252;29;20038;-63
2021/08/07 07:22:07;;;;;;;1.58;0.90;;;;;;;17.70;55.63;99950.56;7808099;29;20036;-66
2021/08/07 07:26:00;;;;;;;2.78;0.90;;;;;;;17.71;56.13;99954.91;7804559;29;20048;-65
2021/08/07 07:29:51;;;;;;;0.75;0.75;;;;;;;17.73;55.98;99952.91;7801628;29;20152;-65
2021/08/07 07:33:42;;;;;;;1.70;1.00;;;;;;;17.80;55.95;99956.53;7806615;29;20131;-65
2021/08/07 07:37:32;;;;;;;1.73;1.17;;;;;;;17.88;55.93;99955.69;7820812;29;20044;-65
2021/08/07 07:41:23;;;;;;;2.45;1.10;;;;;;;18.02;55.90;99952.34;7822104;29;20083;-65
2021/08/07 07:45:14;;;;;;;3.22;1.02;;;;;;;18.29;55.57;99956.34;7821623;29;20035;-63
2021/08/07 07:49:07;;;;;;;2.38;1.10;;;;;;;18.96;55.51;99956.66;7818244;29;20774;-64
2021/08/07 07:52:59;;;;;;;2.10;1.02;;;;;;;19.47;54.99;99950.63;7797873;29;20035;-65
2021/08/07 07:56:51;;;;;;;3.05;1.20;;;;;;;19.82;55.02;99954.41;7796721;29;20046;-63
2021/08/07 08:00:43;;;;;;;2.10;1.00;;;;;;;20.07;54.77;99947.84;7792221;29;20040;-63
2021/08/07 08:04:34;;;;;;;2.20;1.10;;;;;;;21.05;54.01;99942.81;7797784;29;20420;-64
2021/08/07 08:08:26;;;;;;;9.82;1.20;;;;;;;21.86;53.22;99941.44;7781024;29;20031;-65
2021/08/07 08:12:17;;;;;;;9.20;1.80;;;;;;;22.22;52.73;99929.66;7802931;29;20602;-64
2021/08/07 08:16:13;;;;;;;2.55;1.10;;;;;;;22.45;52.22;99922.97;7795320;29;20036;-64
2021/08/07 08:20:07;;;;;;;3.22;1.20;;;;;;;22.53;52.03;99930.84;7787017;29;20040;-65
2021/08/07 08:23:58;;;;;;;3.25;1.27;;;;;;;22.36;52.10;99920.69;7788266;29;20048;-65
2021/08/07 08:27:49;;;;;;;2.67;1.23;;;;;;;22.18;51.96;99923.88;7797629;29;20409;-64
2021/08/07 08:31:40;;;;;;;3.03;1.15;;;;;;;22.06;51.80;99920.13;7812736;29;20027;-65
2021/08/07 08:35:30;;;;;;;2.28;1.00;;;;;;;21.93;51.58;99918.22;7805240;29;20477;-66
2021/08/07 08:39:21;;;;;;;1.33;0.98;;;;;;;21.80;51.70;99914.59;7793094;29;20032;-65
2021/08/07 08:43:13;;;;;;;3.13;1.17;;;;;;;21.73;51.70;99908.41;7801348;29;20032;-65
2021/08/07 08:47:06;;;;;;;3.55;1.42;;;;;;;21.66;51.48;99919.06;7796356;29;20066;-65
2021/08/07 08:50:58;;;;;;;2.80;1.38;;;;;;;21.58;51.73;99919.22;7812894;29;20035;-65
2021/08/07 08:54:49;;;;;;;2.58;1.10;;;;;;;21.44;51.45;99907.63;7821100;29;20126;-65
2021/08/07 08:58:41;;;;;;;8.93;1.40;;;;;;;21.32;51.48;99922.53;7803246;29;20059;-65
2021/08/07 09:02:31;;;;;;;4.28;1.35;;;;;;;21.26;51.50;99909.94;7819782;29;20040;-66
2021/08/07 09:06:23;;;;;;;3.70;1.10;;;;;;;21.23;51.49;99905.00;7817818;29;20118;-64
2021/08/07 09:10:15;;;;;;;2.25;1.23;;;;;;;21.28;51.29;99907.91;7810461;29;20760;-65
2021/08/07 09:14:29;;;;;;;3.70;1.20;;;;;;;21.26;51.01;99899.25;7818733;29;20687;-65
2021/08/07 09:18:25;;;;;;;2.88;1.25;;;;;;;21.32;51.02;99893.16;7819091;29;20039;-65
2021/08/07 09:22:31;;;;;;;4.22;0.88;;;;;;;21.43;50.82;99897.13;7819356;29;20039;-63
2021/08/07 09:26:23;;;;;;;5.10;0.98;;;;;;;21.60;50.92;99890.44;7817349;29;20036;-64
2021/08/07 09:30:25;;;;;;;2.72;1.10;;;;;;;21.76;50.79;99884.78;7798479;29;20058;-68
2021/08/07 09:34:20;;;;;;;3.53;1.63;;;;;;;21.87;50.59;99894.97;7809123;29;20036;-64
2021/08/07 09:38:23;;;;;;;2.40;1.00;;;;;;;21.91;50.30;99896.22;7803258;29;20039;-64
2021/08/07 09:42:50;;;;;;;;;;;;;;;21.75;51.38;99895.69;7804298;29;20036;-64
2021/08/07 09:46:42;;;;;;;4.45;1.00;;;;;;;21.88;50.52;99893.91;7797278;29;20364;-64
2021/08/07 09:50:34;;;;;;;2.45;1.02;;;;;;;21.94;50.14;99887.78;7808415;29;20373;-64
2021/08/07 09:54:41;;;;;;;2.00;1.00;;;;;;;22.01;50.11;99890.47;7804435;29;20043;-65
2021/08/07 09:58:33;;;;;;;2.58;1.00;;;;;;;22.08;50.23;99878.78;7804906;29;20079;-65
2021/08/07 10:02:27;;;;;;;3.67;1.17;;;;;;;22.15;50.40;99878.84;7805820;29;20118;-65
2021/08/07 10:06:22;;;;;;;1.75;1.00;;;;;;;22.22;50.02;99885.03;7810173;29;20115;-65
2021/08/07 10:10:22;;;;;;;2.88;1.10;;;;;;;22.28;49.46;99875.38;7806227;29;20040;-65
2021/08/07 10:14:25;;;;;;;8.10;1.40;;;;;;;22.29;49.30;99869.81;7801841;29;20056;-65
2021/08/07 10:18:17;;;;;;;0.82;0.80;;;;;;;22.31;49.21;99865.09;7798140;29;20039;-65
2021/08/07 10:22:10;;;;;;;1.92;1.08;;;;;;;22.29;49.10;99850.28;7809009;29;20039;-64
2021/08/07 10:26:15;;;;;;;2.78;1.10;;;;;;;22.30;49.01;99842.03;7800939;29;20504;-64
2021/08/07 10:30:11;;;;;;;3.78;0.95;;;;;;;22.30;49.07;99838.53;7805811;29;20067;-65
2021/08/07 10:34:05;;;;;;;1.40;0.90;;;;;;;22.31;49.03;99827.63;7806290;29;20564;-64
2021/08/07 10:37:58;;;;;;;3.75;1.13;;;;;;;22.36;48.80;99832.38;7812266;29;20531;-65
2021/08/07 10:41:50;;;;;;;1.33;0.95;;;;;;;22.37;48.53;99828.69;7809059;29;20043;-65
2021/08/07 10:45:42;;;;;;;2.35;0.90;;;;;;;22.36;48.22;99821.69;7813324;29;20519;-66
2021/08/07 10:49:34;;;;;;;3.05;1.10;;;;;;;22.35;48.13;99817.34;7792489;29;20798;-65
2021/08/07 10:53:25;;;;;;;3.63;1.00;;;;;;;22.34;47.79;99816.53;7800007;29;20040;-64
2021/08/07 10:57:36;;;;;;;4.13;0.80;;;;;;;22.28;47.37;99812.00;7817016;29;20027;-66
2021/08/07 11:01:31;;;;;;;1.52;1.05;;;;;;;22.22;47.26;99811.97;7802016;29;20046;-64
2021/08/07 11:05:47;;;;;;;4.15;0.82;;;;;;;22.12;47.40;99820.41;7800527;29;20104;-64
2021/08/07 11:09:40;;;;;;;3.05;0.80;;;;;;;22.11;47.22;99823.25;7819894;29;20043;-65
2021/08/07 11:13:31;;;;;;;1.00;0.70;;;;;;;22.09;47.10;99813.59;7819194;29;20031;-64
2021/08/07 11:17:32;;;;;;;2.13;0.95;;;;;;;22.11;46.98;99813.41;7823090;29;20043;-65
2021/08/07 11:21:55;;;;;;;1.60;0.80;;;;;;;22.12;46.87;99812.38;7815041;29;20046;-67
2021/08/07 11:25:55;;;;;;;1.60;0.80;;;;;;;22.17;46.73;99814.41;7799020;29;20071;-67
2021/08/07 11:30:20;;;;;;;1.52;1.00;;;;;;;22.20;46.60;99809.50;7786902;29;20033;-65
2021/08/07 11:34:24;;;;;;;3.50;0.90;;;;;;;22.29;46.72;99797.56;7803380;29;20049;-65
2021/08/07 11:38:16;;;;;;;2.15;0.88;;;;;;;22.36;46.12;99802.94;7812115;29;20484;-65
2021/08/07 11:42:39;;;;;;;1.38;0.80;;;;;;;22.40;45.80;99794.31;7803374;29;20054;-66
2021/08/07 11:46:37;;;;;;;2.05;0.98;;;;;;;22.46;46.40;99779.28;7803590;29;20072;-65
2021/08/07 11:50:28;;;;;;;2.35;0.98;;;;;;;22.54;45.81;99792.50;7820700;29;20024;-65
2021/08/07 11:54:18;;;;;;;2.55;0.95;;;;;;;22.60;45.35;99791.69;7814003;29;20040;-66
2021/08/07 11:58:14;;;;;;;3.47;1.23;;;;;;;22.60;45.28;99786.34;7794820;29;20052;-66
2021/08/07 12:02:15;;;;;;;1.13;0.65;;;;;;;22.57;44.78;99794.78;7819567;29;20408;-65
2021/08/07 12:06:06;;;;;;;2.17;1.00;;;;;;;22.52;45.01;99786.53;7818233;29;20066;-64
2021/08/07 12:10:04;;;;;;;3.72;0.75;;;;;;;22.40;44.91;99783.63;7805821;29;20046;-65
2021/08/07 12:13:58;;;;;;;1.45;0.80;;;;;;;22.29;44.95;99783.41;7802380;29;20043;-66
2021/08/07 12:17:50;;;;;;;2.17;0.68;;;;;;;22.16;44.72;99761.97;7811519;29;20531;-65
2021/08/07 12:21:41;;;;;;;1.40;0.70;;;;;;;22.16;45.01;99765.47;7818540;29;20054;-65
2021/08/07 12:25:32;;;;;;;4.38;0.98;;;;;;;22.20;45.13;99763.22;7806398;29;20070;-66
2021/08/07 12:29:30;;;;;;;1.67;0.90;;;;;;;22.20;45.09;99757.88;7806207;29;20043;-65
2021/08/07 12:33:25;;;;;;;1.63;0.80;;;;;;;22.23;45.23;99752.09;7797609;29;20039;-67
2021/08/07 12:37:19;;;;;;;1.02;0.68;;;;;;;22.25;45.27;99756.22;7804187;29;20042;-65
2021/08/07 12:41:11;;;;;;;1.48;0.85;;;;;;;22.28;45.24;99752.31;7805521;29;20039;-65
2021/08/07 12:45:09;;;;;;;3.15;0.93;;;;;;;22.24;45.04;99735.03;7821715;29;20522;-65
2021/08/07 12:49:00;;;;;;;3.28;0.80;;;;;;;22.21;44.85;99733.56;7820480;29;20489;-65
2021/08/07 12:52:59;;;;;;;1.98;0.65;;;;;;;22.29;44.61;99738.72;7821829;29;20050;-66
2021/08/07 12:56:51;;;;;;;1.75;0.80;;;;;;;22.32;44.53;99741.00;7812261;29;20047;-65
2021/08/07 13:00:42;;;;;;;0.98;0.60;;;;;;;22.38;44.27;99734.81;7804728;29;20032;-65
2021/08/07 13:04:53;;;;;;;11.32;3.35;;;;;;;22.42;44.27;99729.88;7791842;29;20044;-65
2021/08/07 13:08:44;;;;;;;16.50;4.25;;;;;;;22.45;44.18;99718.78;7808398;29;20038;-64
2021/08/07 13:12:42;;;;;;;23.95;6.40;;;;;;;22.50;43.78;99713.66;7813777;29;20042;-65
2021/08/07 13:16:44;;;;;;;1.83;1.15;;;;;;;22.54;44.07;99726.41;7820638;29;20039;-65
2021/08/07 13:20:44;;;;;;;1.38;0.70;;;;;;;22.61;43.64;99725.59;7819704;29;20059;-65
2021/08/07 13:24:37;;;;;;;0.93;0.80;;;;;;;22.61;43.60;99725.59;7805906;29;20039;-65
2021/08/07 13:28:27;;;;;;;2.50;0.82;;;;;;;22.63;43.59;99726.19;7803763;29;20039;-65
2021/08/07 13:32:21;;;;;;;2.75;0.80;;;;;;;22.67;43.28;99722.06;7820845;29;20034;-67
2021/08/07 13:36:12;;;;;;;0.85;0.50;;;;;;;22.68;43.29;99705.81;7819990;29;20047;-65
2021/08/07 13:40:04;;;;;;;0.57;0.50;;;;;;;22.68;43.21;99708.50;7825187;29;20399;-66
2021/08/07 13:43:55;;;;;;;0.75;0.63;;;;;;;22.69;43.04;99707.47;7826873;29;20672;-65
2021/08/07 13:47:46;;;;;;;0.50;0.50;;;;;;;22.70;42.83;99709.13;7826017;29;20119;-66
2021/08/07 13:51:36;;;;;;;0.82;0.50;;;;;;;22.69;43.07;99707.47;7816789;29;20044;-65
2021/08/07 13:55:28;;;;;;;2.25;0.80;;;;;;;22.71;43.01;99707.25;7801898;29;20032;-64
2021/08/07 13:59:18;;;;;;;1.23;0.45;;;;;;;22.70;42.76;99703.78;7810667;29;20055;-64
2021/08/07 14:03:09;;;;;;;0.60;0.60;;;;;;;22.69;42.86;99698.63;7826021;29;20136;-65
2021/08/07 14:07:00;;;;;;;0.55;0.50;;;;;;;22.65;42.33;99698.22;7809303;29;20035;-64
2021/08/07 14:10:51;;;;;;;7.00;0.63;;;;;;;22.62;42.27;99705.84;7798076;29;20020;-65
2021/08/07 14:14:41;;;;;;;1.73;0.63;;;;;;;22.57;42.49;99710.97;7810020;29;20091;-66
2021/08/07 14:18:32;;;;;;;1.73;0.75;;;;;;;22.51;42.45;99704.59;7808959;29;20040;-65
2021/08/07 14:22:23;;;;;;;0.70;0.60;;;;;;;22.48;42.33;99697.00;7817452;29;20059;-66
2021/08/07 14:26:14;;;;;;;3.13;0.90;;;;;;;22.45;42.48;99694.72;7809348;29;20177;-65
2021/08/07 14:30:05;;;;;;;0.68;0.38;;;;;;;22.45;42.49;99702.72;7797907;29;20753;-65
2021/08/07 14:33:56;;;;;;;2.17;0.75;;;;;;;22.45;42.33;99692.84;7801950;29;20036;-66
2021/08/07 14:37:47;;;;;;;1.33;0.85;;;;;;;22.44;41.95;99687.69;7807924;29;20040;-65
2021/08/07 14:41:38;;;;;;;1.05;0.70;;;;;;;22.42;41.97;99690.56;7804965;29;20039;-66
2021/08/07 14:45:29;;;;;;;1.98;0.80;;;;;;;22.41;41.93;99683.59;7808740;29;20729;-65
2021/08/07 14:49:19;;;;;;;0.75;0.70;;;;;;;22.42;41.83;99679.03;7811371;29;20766;-64
2021/08/07 14:53:10;;;;;;;1.08;0.70;;;;;;;22.45;42.01;99659.91;7809216;29;20059;-66
2021/08/07 14:57:01;;;;;;;0.93;0.70;;;;;;;22.51;42.00;99659.09;7808804;29;20042;-65
2021/08/07 15:00:52;;;;;;;0.98;0.57;;;;;;;22.53;41.66;99657.06;7823639;29;20416;-65
2021/08/07 15:04:42;;;;;;;2.13;0.80;;;;;;;22.54;41.68;99658.69;7823928;29;20036;-65
2021/08/07 15:08:33;;;;;;;0.55;0.55;;;;;;;22.55;41.67;99654.97;7819796;29;20040;-65
2021/08/07 15:12:23;;;;;;;1.10;0.82;;;;;;;22.54;41.62;99648.81;7794616;29;20038;-67
2021/08/07 15:16:15;;;;;;;2.42;1.00;;;;;;;22.50;41.63;99636.03;7801565;29;20032;-65
2021/08/07 15:20:06;;;;;;;1.50;0.70;;;;;;;22.53;41.28;99655.22;7798008;29;20035;-64
2021/08/07 15:23:57;;;;;;;3.45;1.00;;;;;;;22.51;41.23;99654.56;7800113;29;20102;-64
2021/08/07 15:27:50;;;;;;;2.50;0.80;;;;;;;22.51;41.66;99651.06;7814128;29;20032;-63
2021/08/07 15:31:41;;;;;;;0.82;0.70;;;;;;;22.50;41.37;99650.25;7807167;29;20135;-64
2021/08/07 15:35:32;;;;;;;3.83;0.68;;;;;;;22.50;41.49;99641.41;7793494;29;20040;-64
2021/08/07 15:39:23;;;;;;;6.20;0.90;;;;;;;22.49;41.34;99650.47;7808306;29;20040;-66
2021/08/07 15:43:14;;;;;;;2.22;0.95;;;;;;;22.47;41.45;99652.53;7805917;29;20079;-63
2021/08/07 15:47:04;;;;;;;1.98;0.70;;;;;;;22.45;41.39;99644.69;7808896;29;20068;-63
2021/08/07 15:50:55;;;;;;;0.60;0.60;;;;;;;22.45;41.34;99638.50;7798266;29;20031;-66
2021/08/07 15:54:46;;;;;;;2.38;0.82;;;;;;;22.45;40.98;99642.00;7802636;29;20039;-65
2021/08/07 15:58:37;;;;;;;1.25;0.80;;;;;;;22.47;41.25;99647.16;7806690;29;20509;-66
2021/08/07 16:02:28;;;;;;;1.10;0.65;;;;;;;22.51;41.14;99645.72;7790531;29;20422;-63
2021/08/07 16:06:19;;;;;;;0.82;0.70;;;;;;;22.50;41.07;99644.91;7801628;29;20036;-63
2021/08/07 16:10:36;;;;;;;0.73;0.68;;;;;;;22.53;41.33;99649.03;7798530;29;20058;-65
2021/08/07 16:14:26;;;;;;;1.90;0.90;;;;;;;22.51;41.19;99659.09;7783624;29;20041;-66
2021/08/07 16:18:17;;;;;;;1.95;0.73;;;;;;;22.46;41.39;99661.53;7800646;29;20031;-69
2021/08/07 16:22:08;;;;;;;5.15;0.98;;;;;;;22.44;41.43;99671.66;7814514;29;20090;-71
2021/08/07 16:25:59;;;;;;;3.38;1.05;;;;;;;22.41;41.43;99664.03;7791325;29;20377;-74
2021/08/07 16:29:49;;;;;;;2.58;1.42;;;;;;;22.38;41.20;99673.28;7808161;29;20028;-69
2021/08/07 16:33:40;;;;;;;5.20;0.90;;;;;;;22.34;41.27;99660.53;7795342;29;20036;-69
2021/08/07 16:37:31;;;;;;;3.35;0.65;;;;;;;22.28;41.27;99662.19;7805811;29;20607;-69
2021/08/07 16:41:23;;;;;;;6.35;0.85;;;;;;;22.24;41.28;99662.81;7813575;29;20086;-70
2021/08/07 16:45:13;;;;;;;0.93;0.60;;;;;;;22.22;41.23;99654.16;7808104;29;20036;-67
2021/08/07 16:49:05;;;;;;;1.98;0.80;;;;;;;22.18;41.16;99652.91;7793589;29;20392;-69
2021/08/07 16:52:56;;;;;;;0.50;0.43;;;;;;;22.14;41.46;99665.06;7804856;29;20389;-70
2021/08/07 16:56:46;;;;;;;1.80;1.20;;;;;;;22.08;41.46;99670.19;7809015;29;20034;-69
2021/08/07 17:00:37;;;;;;;0.95;0.63;;;;;;;21.90;41.39;99651.28;7812949;29;20047;-69
2021/08/07 17:04:27;;;;;;;0.73;0.60;;;;;;;22.01;41.35;99679.25;7797243;29;20031;-68
2021/08/07 17:08:18;;;;;;;1.73;0.80;;;;;;;21.93;41.56;99674.91;7813189;29;20041;-69
2021/08/07 17:12:08;;;;;;;1.60;0.80;;;;;;;21.94;41.31;99673.91;7798201;29;20039;-68
2021/08/07 17:15:59;;;;;;;1.35;0.70;;;;;;;21.85;41.37;99667.09;7799708;29;20106;-69
2021/08/07 17:19:50;;;;;;;2.92;0.85;;;;;;;21.88;41.39;99680.03;7814725;29;20035;-69
2021/08/07 17:23:40;;;;;;;6.35;1.00;;;;;;;21.82;41.52;99672.81;7800931;29;20036;-69
2021/08/07 17:27:31;;;;;;;1.75;0.93;;;;;;;21.77;41.48;99667.25;7808114;29;20046;-69
2021/08/07 17:31:21;;;;;;;7.22;0.90;;;;;;;21.73;41.64;99667.84;7794640;29;20034;-69
2021/08/07 17:35:12;;;;;;;4.55;1.25;;;;;;;21.69;41.71;99664.78;7804961;29;20050;-68
2021/08/07 17:39:03;;;;;;;2.40;0.90;;;;;;;21.66;41.54;99675.88;7805774;29;20086;-69
2021/08/07 17:42:55;;;;;;;2.13;1.00;;;;;;;21.61;41.65;99678.31;7820367;29;20039;-69
2021/08/07 17:46:45;;;;;;;1.48;0.60;;;;;;;21.57;41.57;99693.09;7819546;29;20132;-69
2021/08/07 17:50:37;;;;;;;1.55;0.60;;;;;;;21.51;41.73;99697.41;7812416;29;20150;-69
2021/08/07 17:54:27;;;;;;;4.15;1.05;;;;;;;21.45;41.57;99695.53;7801342;29;20040;-69
2021/08/07 17:58:18;;;;;;;5.55;1.35;;;;;;;21.38;41.75;99702.69;7803574;29;20046;-69
2021/08/07 18:02:09;;;;;;;6.03;1.13;;;;;;;21.34;41.63;99706.78;7795591;29;20070;-69
2021/08/07 18:05:59;;;;;;;5.35;1.25;;;;;;;21.31;41.46;99706.34;7810178;29;20195;-70
2021/08/07 18:09:50;;;;;;;5.82;1.17;;;;;;;21.23;41.67;99712.69;7810560;29;20028;-75
2021/08/07 18:13:41;;;;;;;3.35;1.10;;;;;;;21.22;41.75;99727.06;7810093;29;20154;-76
2021/08/07 18:17:32;;;;;;;2.13;0.80;;;;;;;21.08;41.56;99723.50;7797817;29;20044;-76